Time;durP1;ratioP1;P1;durP2;ratioP2;P2;SDS_P1;SDS_P2;PMS_P1;PMS_P2;Temp;Humidity;BMP_temperature;BMP_pressure;BME280_temperature;BME280_humidity;BME280_pressure;Samples;Min_cycle;Max_cycle;Signal;HPM_P1;HPM_P2
2024/04/16 00:01:28;;;;;;;;;;;;;;;15.55;60.40;98080.38;5450496;26;19933;-81
2024/04/16 00:03:53;;;;;;;;;;;;;;;15.65;60.11;98076.97;5430486;26;19928;-80
2024/04/16 00:06:18;;;;;;;;;;;;;;;15.71;61.08;98074.25;5452380;26;20264;-79
2024/04/16 00:08:46;;;;;;;;;;;;;;;15.61;62.16;98075.66;5451338;26;19978;-79
2024/04/16 00:11:12;;;;;;;;;;;;;;;15.62;60.75;98080.72;5451733;26;20256;-79
2024/04/16 00:13:37;;;;;;;;;;;;;;;15.61;59.17;98070.84;5452121;26;19929;-79
2024/04/16 00:16:02;;;;;;;;;;;;;;;15.85;55.62;98067.88;5452138;26;20314;-79
2024/04/16 00:18:27;;;;;;;;;;;;;;;16.10;54.42;98064.34;5452228;26;19928;-79
2024/04/16 00:20:53;;;;;;;;;;;;;;;16.30;53.34;98066.38;5453063;26;19940;-79
2024/04/16 00:23:18;;;;;;;;;;;;;;;16.48;53.43;98062.50;5451524;26;19981;-79
2024/04/16 00:25:43;;;;;;;;;;;;;;;16.71;50.91;98072.63;5449407;26;19960;-79
2024/04/16 00:28:09;;;;;;;;;;;;;;;16.91;49.28;98080.94;5418160;26;19940;-78
2024/04/16 00:30:34;;;;;;;;;;;;;;;17.01;48.97;98076.69;5444014;26;19936;-79
2024/04/16 00:32:59;;;;;;;;;;;;;;;16.94;50.00;98076.38;5452018;26;19929;-79
2024/04/16 00:35:24;;;;;;;;;;;;;;;16.99;50.14;98084.81;5453531;26;20256;-79
2024/04/16 00:37:50;;;;;;;;;;;;;;;17.02;49.45;98083.06;5451750;26;19929;-78
2024/04/16 00:40:15;;;;;;;;;;;;;;;17.11;49.22;98094.06;5452663;26;20353;-79
2024/04/16 00:42:40;;;;;;;;;;;;;;;17.14;49.52;98101.41;5451881;26;19997;-81
2024/04/16 00:45:08;;;;;;;;;;;;;;;17.06;49.66;98106.69;5450833;26;19943;-79
2024/04/16 00:47:33;;;;;;;;;;;;;;;16.90;50.63;98093.34;5422308;26;19936;-79
2024/04/16 00:49:58;;;;;;;;;;;;;;;16.79;51.78;98086.91;5415661;26;19958;-81
2024/04/16 00:52:24;;;;;;;;;;;;;;;16.64;52.47;98082.19;5451528;26;19936;-79
2024/04/16 00:54:49;;;;;;;;;;;;;;;16.55;53.18;98078.78;5451273;26;19936;-80
2024/04/16 00:57:14;;;;;;;;;;;;;;;16.39;54.25;98082.19;5416117;26;19979;-80
2024/04/16 00:59:40;;;;;;;;;;;;;;;16.24;55.37;98085.81;5415559;26;20426;-81
2024/04/16 01:02:05;;;;;;;;;;;;;;;15.95;56.39;98079.63;5451622;26;19928;-80
2024/04/16 01:04:30;;;;;;;;;;;;;;;15.85;57.38;98079.03;5451081;26;19932;-80
2024/04/16 01:06:56;;;;;;;;;;;;;;;15.72;58.70;98073.78;5450783;26;19928;-80
2024/04/16 01:09:22;;;;;;;;;;;;;;;15.48;59.04;98079.50;5452987;26;19933;-80
2024/04/16 01:11:47;;;;;;;;;;;;;;;15.37;59.73;98076.53;5451181;26;20337;-79
2024/04/16 01:14:12;;;;;;;;;;;;;;;15.29;59.56;98075.44;5451212;26;19940;-79
2024/04/16 01:16:38;;;;;;;;;;;;;;;15.37;58.01;98084.88;5451278;26;20267;-81
2024/04/16 01:19:03;;;;;;;;;;;;;;;15.38;56.78;98080.09;5453227;26;19997;-82
2024/04/16 01:21:29;;;;;;;;;;;;;;;15.50;55.24;98081.78;5451016;26;19944;-82
2024/04/16 01:23:54;;;;;;;;;;;;;;;15.69;54.38;98076.75;5451135;26;20022;-79
2024/04/16 01:26:19;;;;;;;;;;;;;;;15.87;54.48;98077.25;5449494;26;19929;-81
2024/04/16 01:28:45;;;;;;;;;;;;;;;15.91;54.67;98065.94;5450561;26;19935;-82
2024/04/16 01:31:10;;;;;;;;;;;;;;;15.97;54.49;98072.34;5450777;26;19928;-79
2024/04/16 01:33:35;;;;;;;;;;;;;;;15.81;55.73;98062.50;5465629;26;19927;-79
2024/04/16 01:36:00;;;;;;;;;;;;;;;15.70;56.22;98061.59;5474310;26;20466;-78
2024/04/16 01:38:26;;;;;;;;;;;;;;;15.59;58.15;98061.44;5463852;26;19928;-81
2024/04/16 01:40:51;;;;;;;;;;;;;;;15.70;56.77;98053.22;5443317;26;20319;-79
2024/04/16 01:43:16;;;;;;;;;;;;;;;15.65;55.96;98048.38;5435821;26;19937;-79
2024/04/16 01:45:42;;;;;;;;;;;;;;;15.65;56.19;98046.34;5452197;26;19929;-81
2024/04/16 01:48:07;;;;;;;;;;;;;;;15.66;55.66;98044.34;5452112;26;19928;-81
2024/04/16 01:50:32;;;;;;;;;;;;;;;15.54;56.61;98043.41;5450331;26;19929;-79
2024/04/16 01:52:58;;;;;;;;;;;;;;;15.55;55.61;98052.53;5424078;26;19934;-81
2024/04/16 01:55:23;;;;;;;;;;;;;;;15.50;57.54;98048.38;5443518;26;19997;-80
2024/04/16 01:57:49;;;;;;;;;;;;;;;15.49;58.34;98046.88;5451047;26;19936;-79
2024/04/16 02:00:14;;;;;;;;;;;;;;;15.49;58.75;98047.59;5449555;26;19940;-79
2024/04/16 02:02:39;;;;;;;;;;;;;;;15.36;59.62;98049.22;5452422;26;19935;-81
2024/04/16 02:05:05;;;;;;;;;;;;;;;15.42;59.28;98047.28;5452076;26;19928;-79
2024/04/16 02:07:30;;;;;;;;;;;;;;;15.45;57.71;98038.69;5450241;26;19997;-81
2024/04/16 02:09:56;;;;;;;;;;;;;;;15.46;57.52;98026.31;5451854;26;19936;-80
2024/04/16 02:12:21;;;;;;;;;;;;;;;15.51;58.61;98015.72;5452232;26;20299;-79
2024/04/16 02:14:47;;;;;;;;;;;;;;;15.52;57.69;98009.72;5451311;26;19928;-79
2024/04/16 02:17:12;;;;;;;;;;;;;;;15.65;57.59;98020.50;5450484;26;20425;-80
2024/04/16 02:19:38;;;;;;;;;;;;;;;15.73;55.97;98024.41;5450117;26;19928;-79
2024/04/16 02:22:03;;;;;;;;;;;;;;;15.71;55.46;98021.34;5450676;26;20483;-80
2024/04/16 02:24:29;;;;;;;;;;;;;;;15.75;56.03;98019.13;5442610;26;19929;-80
2024/04/16 02:26:54;;;;;;;;;;;;;;;15.80;55.67;98021.97;5434976;26;19928;-80
2024/04/16 02:29:19;;;;;;;;;;;;;;;15.85;54.78;98021.25;5451748;26;20269;-79
2024/04/16 02:31:45;;;;;;;;;;;;;;;15.94;54.12;98025.16;5451471;26;19932;-80
2024/04/16 02:34:10;;;;;;;;;;;;;;;15.97;53.72;98024.97;5455090;26;19928;-81
2024/04/16 02:36:36;;;;;;;;;;;;;;;15.95;53.88;98026.69;5456027;26;20347;-81
2024/04/16 02:39:02;;;;;;;;;;;;;;;15.92;53.54;98024.88;5445477;26;19937;-80
2024/04/16 02:41:28;;;;;;;;;;;;;;;16.00;52.74;98023.97;5420049;26;19936;-82
2024/04/16 02:43:54;;;;;;;;;;;;;;;15.93;53.07;98018.06;5449164;26;19929;-80
2024/04/16 02:46:19;;;;;;;;;;;;;;;16.10;52.63;98019.00;5455861;26;19940;-84
2024/04/16 02:48:44;;;;;;;;;;;;;;;16.12;52.11;98020.06;5452932;26;20355;-81
2024/04/16 02:51:17;;;;;;;;;;;;;;;16.24;52.52;98020.94;5454470;26;20260;-79
2024/04/16 02:53:42;;;;;;;;;;;;;;;16.32;51.42;98026.84;5452779;26;20001;-80
2024/04/16 02:56:07;;;;;;;;;;;;;;;16.31;51.32;98042.03;5434171;26;20365;-78
2024/04/16 02:58:32;;;;;;;;;;;;;;;16.23;51.22;98036.91;5447676;26;19929;-80
2024/04/16 03:01:03;;;;;;;;;;;;;;;16.17;51.88;98040.88;5453685;26;19935;-81
2024/04/16 03:03:28;;;;;;;;;;;;;;;16.24;51.59;98037.66;5452717;26;19928;-79
2024/04/16 03:05:57;;;;;;;;;;;;;;;16.25;51.20;98039.97;5453470;26;20364;-81
2024/04/16 03:08:22;;;;;;;;;;;;;;;16.30;49.89;98041.28;5452792;26;20437;-80
2024/04/16 03:10:47;;;;;;;;;;;;;;;16.36;50.51;98028.16;5432536;26;19941;-79
2024/04/16 03:13:12;;;;;;;;;;;;;;;16.32;50.72;98038.00;5441161;26;19929;-83
2024/04/16 03:15:38;;;;;;;;;;;;;;;16.28;50.57;98033.41;5440085;26;20361;-81
2024/04/16 03:18:03;;;;;;;;;;;;;;;16.31;50.87;98034.44;5452027;26;20356;-80
2024/04/16 03:20:29;;;;;;;;;;;;;;;16.50;49.52;98044.03;5432748;26;19929;-81
2024/04/16 03:22:54;;;;;;;;;;;;;;;16.64;49.00;98036.81;5448257;26;19961;-82
2024/04/16 03:25:19;;;;;;;;;;;;;;;16.69;49.19;98044.47;5454909;26;19996;-81
2024/04/16 03:27:45;;;;;;;;;;;;;;;16.60;49.03;98039.06;5452779;26;19929;-79
2024/04/16 03:30:10;;;;;;;;;;;;;;;16.99;46.63;98047.78;5453421;26;19928;-80
2024/04/16 03:32:35;;;;;;;;;;;;;;;17.18;47.28;98046.13;5452675;26;20367;-80
2024/04/16 03:35:00;;;;;;;;;;;;;;;17.06;47.70;98047.28;5452970;26;19935;-81
2024/04/16 03:37:26;;;;;;;;;;;;;;;16.95;47.93;98045.19;5452975;26;19940;-79
2024/04/16 03:39:51;;;;;;;;;;;;;;;16.98;46.99;98049.78;5452642;26;19972;-81
2024/04/16 03:42:16;;;;;;;;;;;;;;;17.01;48.69;98046.00;5446449;26;20386;-82
2024/04/16 03:44:42;;;;;;;;;;;;;;;17.02;47.89;98049.56;5435508;26;19936;-81
2024/04/16 03:47:07;;;;;;;;;;;;;;;16.82;49.11;98053.19;5422756;26;19929;-79
2024/04/16 03:49:32;;;;;;;;;;;;;;;16.79;49.94;98048.63;5435417;26;19940;-80
2024/04/16 03:51:57;;;;;;;;;;;;;;;16.79;50.36;98047.84;5452674;26;20356;-80
2024/04/16 03:54:23;;;;;;;;;;;;;;;16.56;51.58;98047.63;5452656;26;19928;-79
2024/04/16 03:56:48;;;;;;;;;;;;;;;16.51;51.35;98045.56;5449490;26;19937;-82
2024/04/16 04:02:02;;;;;;;;;;;;;;;16.35;52.06;98050.94;5394173;26;19934;-80
2024/04/16 04:04:27;;;;;;;;;;;;;;;16.51;51.54;98050.38;5451998;26;19929;-82
2024/04/16 04:06:52;;;;;;;;;;;;;;;16.49;51.63;98059.22;5452782;26;19982;-80
2024/04/16 04:09:20;;;;;;;;;;;;;;;16.59;50.82;98062.59;5473736;26;20013;-79
2024/04/16 04:11:46;;;;;;;;;;;;;;;16.73;51.09;98067.34;5475813;26;19935;-81
2024/04/16 04:14:11;;;;;;;;;;;;;;;16.76;50.49;98071.91;5457381;26;19934;-83
2024/04/16 04:16:36;;;;;;;;;;;;;;;16.77;50.73;98076.25;5451722;26;19939;-81
2024/04/16 04:19:02;;;;;;;;;;;;;;;16.76;50.45;98071.16;5454693;26;19928;-81
2024/04/16 04:21:27;;;;;;;;;;;;;;;17.04;50.07;98070.16;5430601;26;19932;-81
2024/04/16 04:23:53;;;;;;;;;;;;;;;16.99;50.14;98076.44;5451680;26;20001;-82
2024/04/16 04:26:18;;;;;;;;;;;;;;;17.13;49.49;98071.97;5451805;26;20289;-82
2024/04/16 04:28:43;;;;;;;;;;;;;;;17.24;48.51;98074.09;5451206;26;20400;-83
2024/04/16 04:31:14;;;;;;;;;;;;;;;17.40;48.10;98073.44;5452932;26;19928;-80
2024/04/16 04:33:40;;;;;;;;;;;;;;;17.49;48.91;98070.44;5452182;26;19928;-81
2024/04/16 04:36:05;;;;;;;;;;;;;;;17.57;48.63;98085.47;5450939;26;19928;-79
2024/04/16 04:38:30;;;;;;;;;;;;;;;17.74;48.22;98089.16;5451646;26;19940;-83
2024/04/16 04:40:56;;;;;;;;;;;;;;;18.01;47.93;98098.97;5450790;26;19940;-81
2024/04/16 04:43:21;;;;;;;;;;;;;;;18.25;47.21;98095.75;5451248;26;20364;-81
2024/04/16 04:45:46;;;;;;;;;;;;;;;18.46;47.63;98096.31;5453192;26;19935;-81
2024/04/16 04:48:12;;;;;;;;;;;;;;;18.68;46.65;98083.19;5454037;26;19928;-80
2024/04/16 04:50:37;;;;;;;;;;;;;;;18.88;45.53;98084.19;5451078;26;19929;-82
2024/04/16 04:53:04;;;;;;;;;;;;;;;19.18;44.85;98078.84;5452189;26;19977;-80
2024/04/16 04:55:29;;;;;;;;;;;;;;;19.33;44.25;98068.16;5450747;26;19954;-81
2024/04/16 04:57:56;;;;;;;;;;;;;;;19.34;44.20;98067.66;5451964;26;19932;-83
2024/04/16 05:00:24;;;;;;;;;;;;;;;19.47;43.59;98064.34;5453129;26;19928;-79
2024/04/16 05:02:49;;;;;;;;;;;;;;;19.66;43.43;98073.72;5428838;26;19933;-81
2024/04/16 05:05:14;;;;;;;;;;;;;;;19.79;43.69;98078.78;5439358;26;19940;-79
2024/04/16 05:07:47;;;;;;;;;;;;;;;19.80;44.25;98071.91;5438213;26;19937;-80
2024/04/16 05:10:12;;;;;;;;;;;;;;;19.59;44.26;98070.72;5427795;26;20260;-81
2024/04/16 05:12:37;;;;;;;;;;;;;;;19.75;43.77;98079.06;5453506;26;19928;-83
2024/04/16 05:15:03;;;;;;;;;;;;;;;19.88;43.41;98078.53;5439780;26;19929;-83
2024/04/16 05:17:28;;;;;;;;;;;;;;;19.89;42.90;98091.28;5436304;26;19929;-81
2024/04/16 05:19:53;;;;;;;;;;;;;;;20.05;41.91;98081.25;5417176;26;19937;-83
2024/04/16 05:22:19;;;;;;;;;;;;;;;20.07;42.09;98084.31;5416999;26;19929;-84
2024/04/16 05:24:44;;;;;;;;;;;;;;;20.16;42.52;98081.22;5413794;26;19928;-83
2024/04/16 05:27:10;;;;;;;;;;;;;;;20.12;42.55;98081.50;5439259;26;19935;-80
2024/04/16 05:29:35;;;;;;;;;;;;;;;20.42;42.04;98078.81;5428404;26;19935;-80
2024/04/16 05:32:01;;;;;;;;;;;;;;;20.87;42.38;98076.50;5450668;26;19934;-80
2024/04/16 05:34:26;;;;;;;;;;;;;;;22.28;39.64;98080.25;5450319;26;19936;-82
2024/04/16 05:36:54;;;;;;;;;;;;;;;23.43;37.85;98070.56;5449659;26;19928;-80
2024/04/16 05:39:19;;;;;;;;;;;;;;;24.67;35.96;98083.78;5451013;26;20364;-81
2024/04/16 05:41:44;;;;;;;;;;;;;;;25.98;34.35;98087.25;5452788;26;19928;-80
2024/04/16 05:44:09;;;;;;;;;;;;;;;26.86;32.97;98083.13;5450269;26;19978;-81
2024/04/16 05:46:35;;;;;;;;;;;;;;;27.16;32.15;98088.88;5428766;26;20009;-79
2024/04/16 05:49:00;;;;;;;;;;;;;;;27.33;32.69;98086.25;5448209;26;19932;-82
2024/04/16 05:51:25;;;;;;;;;;;;;;;27.27;32.11;98084.91;5428267;26;20362;-81
2024/04/16 05:53:51;;;;;;;;;;;;;;;27.14;32.47;98078.09;5414659;26;20414;-82
2024/04/16 05:56:16;;;;;;;;;;;;;;;26.93;33.63;98071.84;5409136;26;19936;-81
2024/04/16 05:58:41;;;;;;;;;;;;;;;26.29;34.47;98083.28;5379162;26;20336;-80
2024/04/16 06:01:07;;;;;;;;;;;;;;;26.23;35.62;98077.78;5400504;26;19956;-81
2024/04/16 06:03:32;;;;;;;;;;;;;;;26.41;35.12;98089.38;5414839;26;19938;-80
2024/04/16 06:05:57;;;;;;;;;;;;;;;26.43;34.31;98084.69;5446512;26;19929;-83
2024/04/16 06:08:22;;;;;;;;;;;;;;;26.17;34.00;98088.47;5429188;26;20418;-83
2024/04/16 06:10:48;;;;;;;;;;;;;;;26.16;34.17;98069.25;5429912;26;19929;-80
2024/04/16 06:13:14;;;;;;;;;;;;;;;26.22;33.66;98072.66;5455273;26;20417;-81
2024/04/16 06:15:39;;;;;;;;;;;;;;;26.63;33.53;98049.81;5452962;26;19929;-80
2024/04/16 06:18:09;;;;;;;;;;;;;;;27.05;33.04;98049.53;5455931;26;19929;-80
2024/04/16 06:20:35;;;;;;;;;;;;;;;27.24;32.81;98049.94;5426812;26;19929;-82
2024/04/16 06:23:00;;;;;;;;;;;;;;;27.25;32.90;98057.09;5434857;26;19977;-82
2024/04/16 06:25:25;;;;;;;;;;;;;;;27.89;31.22;98061.63;5454086;26;19940;-81
2024/04/16 06:27:51;;;;;;;;;;;;;;;28.30;29.99;98055.47;5428327;26;19929;-80
2024/04/16 06:30:16;;;;;;;;;;;;;;;28.34;30.37;98055.06;5447037;26;19928;-81
2024/04/16 06:32:42;;;;;;;;;;;;;;;27.72;30.86;98061.47;5448046;26;20434;-81
2024/04/16 06:35:07;;;;;;;;;;;;;;;27.99;31.71;98064.63;5438161;26;19935;-80
2024/04/16 06:37:32;;;;;;;;;;;;;;;27.98;32.12;98066.72;5455231;26;19929;-79
2024/04/16 06:39:58;;;;;;;;;;;;;;;28.13;31.99;98068.78;5441700;26;19936;-81
2024/04/16 06:42:24;;;;;;;;;;;;;;;29.32;31.19;98064.38;5450693;26;19929;-80
2024/04/16 06:44:49;;;;;;;;;;;;;;;29.65;29.31;98063.00;5474870;26;19921;-81
2024/04/16 06:47:14;;;;;;;;;;;;;;;29.99;28.55;98056.63;5447916;26;19933;-81
2024/04/16 06:49:40;;;;;;;;;;;;;;;30.08;27.19;98061.63;5430279;26;20257;-80
2024/04/16 06:52:08;;;;;;;;;;;;;;;30.16;27.60;98053.00;5423140;26;19929;-79
2024/04/16 06:54:33;;;;;;;;;;;;;;;30.33;26.66;98056.59;5453191;26;19940;-80
2024/04/16 06:56:58;;;;;;;;;;;;;;;31.09;25.90;98057.72;5449777;26;19951;-80
2024/04/16 06:59:24;;;;;;;;;;;;;;;31.45;24.72;98052.00;5450307;26;19961;-80
2024/04/16 07:01:49;;;;;;;;;;;;;;;32.11;24.12;98055.59;5449375;26;19935;-79
2024/04/16 07:04:14;;;;;;;;;;;;;;;32.48;24.75;98049.75;5452927;26;20407;-79
2024/04/16 07:06:41;;;;;;;;;;;;;;;32.55;23.70;98045.97;5421194;26;19996;-80
2024/04/16 07:09:06;;;;;;;;;;;;;;;32.55;24.85;98040.25;5454137;26;19928;-80
2024/04/16 07:11:32;;;;;;;;;;;;;;;32.90;22.93;98043.50;5427929;26;20257;-80
2024/04/16 07:13:57;;;;;;;;;;;;;;;33.43;23.20;98043.03;5453004;26;19936;-79
2024/04/16 07:16:22;;;;;;;;;;;;;;;32.97;23.73;98034.00;5453840;26;19968;-80
2024/04/16 07:18:47;;;;;;;;;;;;;;;32.60;24.57;98034.22;5451523;26;19944;-79
2024/04/16 07:21:13;;;;;;;;;;;;;;;33.50;24.00;98038.47;5451642;26;19928;-80
2024/04/16 07:23:38;;;;;;;;;;;;;;;33.91;23.80;98045.63;5454169;26;19959;-80
2024/04/16 07:26:03;;;;;;;;;;;;;;;34.03;22.16;98036.31;5451727;26;19936;-79
2024/04/16 07:28:28;;;;;;;;;;;;;;;34.78;22.29;98038.41;5454689;26;19955;-80
2024/04/16 07:30:54;;;;;;;;;;;;;;;35.77;21.07;98042.47;5454070;26;19929;-80
2024/04/16 07:33:21;;;;;;;;;;;;;;;36.42;19.18;98036.91;5436209;26;19937;-80
2024/04/16 07:35:46;;;;;;;;;;;;;;;36.56;20.04;98040.59;5446692;26;19944;-82
2024/04/16 07:38:14;;;;;;;;;;;;;;;36.69;20.79;98037.06;5452426;26;19928;-78
2024/04/16 07:40:40;;;;;;;;;;;;;;;36.86;19.72;98030.81;5452452;26;19940;-78
2024/04/16 07:43:05;;;;;;;;;;;;;;;36.79;20.29;98031.84;5452124;26;19929;-79
2024/04/16 07:45:31;;;;;;;;;;;;;;;37.31;19.17;98024.63;5454589;26;19929;-78
2024/04/16 07:47:56;;;;;;;;;;;;;;;37.87;19.84;98024.72;5452036;26;19998;-78
2024/04/16 07:50:22;;;;;;;;;;;;;;;37.57;19.15;98028.16;5451609;26;20380;-78
2024/04/16 07:52:47;;;;;;;;;;;;;;;37.28;20.44;98020.88;5451595;26;19977;-78
2024/04/16 07:55:12;;;;;;;;;;;;;;;35.94;20.81;98032.69;5452684;26;20250;-80
2024/04/16 07:57:38;;;;;;;;;;;;;;;35.30;20.82;98026.63;5454526;26;19996;-79
2024/04/16 08:00:03;;;;;;;;;;;;;;;35.25;20.46;98024.88;5451335;26;19940;-78
2024/04/16 08:02:28;;;;;;;;;;;;;;;35.05;19.96;98016.47;5452583;26;20373;-78
2024/04/16 08:04:54;;;;;;;;;;;;;;;34.85;21.49;98009.44;5451855;26;19928;-79
2024/04/16 08:07:19;;;;;;;;;;;;;;;34.28;19.55;98007.91;5452566;26;19928;-79
2024/04/16 08:09:46;;;;;;;;;;;;;;;33.98;19.78;98017.34;5452242;26;20344;-78
2024/04/16 08:12:11;;;;;;;;;;;;;;;33.81;19.11;98018.41;5453586;26;19936;-79
2024/04/16 08:14:36;;;;;;;;;;;;;;;34.00;21.43;98018.22;5451746;26;19936;-79
2024/04/16 08:17:01;;;;;;;;;;;;;;;34.22;20.43;98010.38;5451785;26;20269;-77
2024/04/16 08:19:27;;;;;;;;;;;;;;;33.71;17.93;98006.22;5453829;26;19944;-78
2024/04/16 08:21:53;;;;;;;;;;;;;;;33.28;17.75;98005.41;5451227;26;20257;-77
2024/04/16 08:24:18;;;;;;;;;;;;;;;32.94;18.17;97987.31;5451783;26;20360;-77
2024/04/16 08:26:44;;;;;;;;;;;;;;;32.99;19.29;97988.34;5453659;26;19928;-78
2024/04/16 08:29:09;;;;;;;;;;;;;;;33.67;19.97;97986.63;5449973;26;19961;-78
2024/04/16 08:31:34;;;;;;;;;;;;;;;34.21;19.33;97991.69;5454156;26;19928;-77
2024/04/16 08:34:02;;;;;;;;;;;;;;;34.65;19.24;97988.81;5451736;26;20353;-78
2024/04/16 08:36:27;;;;;;;;;;;;;;;34.75;19.27;97994.47;5453942;26;19929;-80
2024/04/16 08:38:52;;;;;;;;;;;;;;;34.57;18.68;97988.28;5450484;26;19935;-78
2024/04/16 08:41:18;;;;;;;;;;;;;;;34.49;18.95;97976.28;5451493;26;19935;-79
2024/04/16 08:43:44;;;;;;;;;;;;;;;34.26;18.61;97976.22;5453199;26;19928;-79
2024/04/16 08:46:11;;;;;;;;;;;;;;;34.23;18.38;97971.75;5453523;26;20708;-80
2024/04/16 08:48:39;;;;;;;;;;;;;;;33.58;18.24;97970.25;5447057;26;19928;-80
2024/04/16 08:51:06;;;;;;;;;;;;;;;33.05;17.63;97963.75;5433783;26;19936;-79
2024/04/16 08:53:32;;;;;;;;;;;;;;;32.66;17.75;97962.41;5448758;26;19949;-79
2024/04/16 08:55:58;;;;;;;;;;;;;;;31.78;18.40;97969.53;5435062;26;19936;-78
2024/04/16 08:58:23;;;;;;;;;;;;;;;31.93;18.86;97957.06;5450582;26;19935;-80
2024/04/16 09:00:49;;;;;;;;;;;;;;;32.54;17.89;97952.94;5453674;26;19935;-78
2024/04/16 09:03:15;;;;;;;;;;;;;;;32.49;18.13;97951.16;5450221;26;19959;-78
2024/04/16 09:05:41;;;;;;;;;;;;;;;32.47;18.50;97939.56;5450706;26;20322;-78
2024/04/16 09:08:06;;;;;;;;;;;;;;;32.21;17.92;97941.28;5450755;26;19928;-80
2024/04/16 09:10:31;;;;;;;;;;;;;;;32.58;17.78;97931.09;5453713;26;20414;-79
2024/04/16 09:13:07;;;;;;;;;;;;;;;32.06;19.81;97933.00;5452540;26;19932;-78
2024/04/16 09:15:37;;;;;;;;;;;;;;;32.97;19.87;97934.59;5455865;26;19936;-80
2024/04/16 09:18:02;;;;;;;;;;;;;;;32.95;18.84;97920.13;5465097;26;19929;-80
2024/04/16 09:20:27;;;;;;;;;;;;;;;32.72;17.83;97922.78;5417000;26;20372;-79
2024/04/16 09:22:53;;;;;;;;;;;;;;;32.83;17.83;97925.00;5446418;26;19935;-80
2024/04/16 09:25:19;;;;;;;;;;;;;;;32.41;18.32;97924.81;5435901;26;19936;-79
2024/04/16 09:27:45;;;;;;;;;;;;;;;32.05;19.39;97922.91;5419500;26;19937;-79
2024/04/16 09:30:11;;;;;;;;;;;;;;;31.43;19.12;97928.31;5416964;26;20406;-81
2024/04/16 09:32:36;;;;;;;;;;;;;;;30.74;19.28;97908.75;5439225;26;20376;-81
2024/04/16 09:35:02;;;;;;;;;;;;;;;31.05;19.45;97906.91;5435769;26;19943;-81
2024/04/16 09:37:28;;;;;;;;;;;;;;;31.48;18.92;97893.00;5450054;26;20360;-82
2024/04/16 09:39:54;;;;;;;;;;;;;;;31.69;19.90;97898.13;5452939;26;19997;-80
2024/04/16 09:42:24;;;;;;;;;;;;;;;31.96;19.94;97897.94;5454510;26;19928;-80
2024/04/16 09:44:51;;;;;;;;;;;;;;;31.51;19.81;97895.41;5454297;26;19956;-82
2024/04/16 09:47:17;;;;;;;;;;;;;;;31.27;20.86;97896.44;5455734;26;19932;-81
2024/04/16 09:49:42;;;;;;;;;;;;;;;30.70;19.82;97892.06;5454150;26;19936;-81
2024/04/16 09:52:09;;;;;;;;;;;;;;;30.64;20.23;97885.13;5446534;26;20736;-82
2024/04/16 09:54:35;;;;;;;;;;;;;;;30.13;22.10;97889.69;5448108;26;20252;-80
2024/04/16 09:57:01;;;;;;;;;;;;;;;29.91;21.91;97890.72;5427490;26;19936;-80
2024/04/16 09:59:26;;;;;;;;;;;;;;;29.58;22.19;97887.31;5393644;26;19985;-81
2024/04/16 10:01:53;;;;;;;;;;;;;;;29.79;22.63;97879.06;5444995;26;19935;-83
2024/04/16 10:04:18;;;;;;;;;;;;;;;30.66;22.50;97874.66;5454056;26;19932;-81
2024/04/16 10:06:43;;;;;;;;;;;;;;;31.21;20.40;97872.41;5452545;26;19937;-81
2024/04/16 10:09:11;;;;;;;;;;;;;;;31.43;21.68;97869.09;5453933;26;20001;-81
2024/04/16 10:11:36;;;;;;;;;;;;;;;31.52;22.17;97862.66;5453222;26;19936;-81
2024/04/16 10:14:02;;;;;;;;;;;;;;;31.82;23.58;97854.84;5455829;26;19936;-81
2024/04/16 10:16:30;;;;;;;;;;;;;;;32.02;22.79;97850.56;5453127;26;19936;-81
2024/04/16 10:18:55;;;;;;;;;;;;;;;32.09;23.49;97852.50;5434572;26;19940;-81
2024/04/16 10:21:25;;;;;;;;;;;;;;;32.26;24.01;97858.03;5449305;26;19928;-81
2024/04/16 10:24:00;;;;;;;;;;;;;;;31.64;24.68;97853.50;5434929;26;20276;-81
2024/04/16 10:26:26;;;;;;;;;;;;;;;31.58;23.11;97844.44;5451795;26;19936;-81
2024/04/16 10:28:55;;;;;;;;;;;;;;;31.68;22.98;97851.69;5455187;26;19957;-80
2024/04/16 10:31:27;;;;;;;;;;;;;;;31.32;23.33;97844.00;5454669;26;19960;-81
2024/04/16 10:33:58;;;;;;;;;;;;;;;31.64;21.87;97842.06;5453472;26;19978;-81
2024/04/16 10:36:24;;;;;;;;;;;;;;;32.28;21.19;97841.03;5428956;26;19933;-80
2024/04/16 10:38:50;;;;;;;;;;;;;;;32.96;21.31;97838.63;5417581;26;19944;-80
2024/04/16 10:41:24;;;;;;;;;;;;;;;33.34;23.32;97839.72;5419644;26;19929;-80
2024/04/16 10:43:49;;;;;;;;;;;;;;;33.41;21.00;97836.66;5401873;26;19937;-82
2024/04/16 10:46:15;;;;;;;;;;;;;;;33.37;22.67;97824.19;5438469;26;19993;-79
2024/04/16 10:48:41;;;;;;;;;;;;;;;33.61;21.84;97830.75;5419227;26;20373;-80
2024/04/16 10:51:13;;;;;;;;;;;;;;;33.92;22.31;97823.53;5420095;26;19936;-82
2024/04/16 10:53:38;;;;;;;;;;;;;;;33.90;22.50;97826.25;5443650;26;19940;-82
2024/04/16 10:56:04;;;;;;;;;;;;;;;34.12;22.69;97829.78;5453256;26;19935;-81
2024/04/16 10:58:29;;;;;;;;;;;;;;;33.72;20.88;97825.09;5452495;26;19932;-80
2024/04/16 11:00:54;;;;;;;;;;;;;;;33.70;21.72;97819.22;5454199;26;19940;-80
2024/04/16 11:03:21;;;;;;;;;;;;;;;33.79;21.09;97823.38;5452044;26;19932;-80
2024/04/16 11:05:46;;;;;;;;;;;;;;;33.63;21.27;97822.28;5452551;26;19939;-80
2024/04/16 11:08:13;;;;;;;;;;;;;;;33.05;20.70;97826.34;5451995;26;20372;-81
2024/04/16 11:10:41;;;;;;;;;;;;;;;32.83;21.43;97821.97;5445614;26;19928;-80
2024/04/16 11:13:06;;;;;;;;;;;;;;;32.65;20.61;97820.69;5416849;26;20346;-81
2024/04/16 11:15:33;;;;;;;;;;;;;;;32.54;21.24;97809.94;5420040;26;19954;-80
2024/04/16 11:17:58;;;;;;;;;;;;;;;32.46;21.80;97806.50;5444714;26;20326;-82
2024/04/16 11:20:24;;;;;;;;;;;;;;;32.15;22.12;97806.47;5436036;26;19940;-81
2024/04/16 11:22:50;;;;;;;;;;;;;;;32.22;23.93;97803.44;5418617;26;19979;-81
2024/04/16 11:25:15;;;;;;;;;;;;;;;32.10;22.33;97810.38;5423307;26;19939;-81
2024/04/16 11:27:42;;;;;;;;;;;;;;;32.08;21.42;97808.13;5426799;26;19932;-80
2024/04/16 11:30:09;;;;;;;;;;;;;;;32.07;22.69;97803.03;5424187;26;20388;-80
2024/04/16 11:32:36;;;;;;;;;;;;;;;32.01;23.81;97799.75;5446546;26;20392;-80
2024/04/16 11:35:02;;;;;;;;;;;;;;;32.02;22.68;97787.69;5419876;26;19929;-79
2024/04/16 11:37:27;;;;;;;;;;;;;;;32.09;22.84;97781.03;5435831;26;19961;-79
2024/04/16 11:39:54;;;;;;;;;;;;;;;32.19;22.49;97784.63;5416916;26;19973;-80
2024/04/16 11:42:20;;;;;;;;;;;;;;;32.43;21.90;97773.41;5433754;26;20305;-82
2024/04/16 11:44:45;;;;;;;;;;;;;;;32.68;21.49;97773.72;5436329;26;19936;-79
2024/04/16 11:47:11;;;;;;;;;;;;;;;32.84;21.50;97771.97;5458331;26;19936;-80
2024/04/16 11:49:39;;;;;;;;;;;;;;;32.91;20.58;97761.69;5472965;26;20384;-79
2024/04/16 11:52:05;;;;;;;;;;;;;;;32.89;20.97;97750.09;5464746;26;19977;-79
2024/04/16 11:54:35;;;;;;;;;;;;;;;32.01;21.40;97748.31;5453109;26;20279;-79
2024/04/16 11:57:03;;;;;;;;;;;;;;;31.77;21.52;97747.31;5455555;26;19929;-79
2024/04/16 11:59:29;;;;;;;;;;;;;;;32.01;22.51;97746.16;5452855;26;19970;-80
2024/04/16 12:01:54;;;;;;;;;;;;;;;32.41;22.32;97736.09;5418891;26;19933;-80
2024/04/16 12:04:20;;;;;;;;;;;;;;;32.60;21.35;97735.97;5439119;26;19929;-79
2024/04/16 12:06:45;;;;;;;;;;;;;;;32.58;20.67;97727.25;5453221;26;19933;-79
2024/04/16 12:09:10;;;;;;;;;;;;;;;32.11;20.65;97726.91;5430899;26;19936;-80
2024/04/16 12:11:35;;;;;;;;;;;;;;;31.95;22.17;97714.31;5450570;26;19940;-79
2024/04/16 12:26:13;;;;;;;;;;;;;;;32.01;20.67;97705.44;5555592;25;19995;-82
2024/04/16 12:28:38;;;;;;;;;;;;;;;31.48;20.97;97693.09;5541893;25;19935;-82
2024/04/16 12:31:03;;;;;;;;;;;;;;;31.53;20.82;97686.31;5546043;25;19938;-83
2024/04/16 12:33:29;;;;;;;;;;;;;;;31.49;20.85;97678.22;5581908;25;20355;-82
2024/04/16 12:35:54;;;;;;;;;;;;;;;31.59;21.29;97672.50;5582485;25;20378;-82
2024/04/16 12:38:19;;;;;;;;;;;;;;;31.50;21.95;97670.41;5550038;25;19934;-83
2024/04/16 12:40:46;;;;;;;;;;;;;;;31.36;20.88;97667.28;5548859;25;19938;-83
2024/04/16 12:43:11;;;;;;;;;;;;;;;31.04;21.29;97659.25;5523930;25;19933;-83
2024/04/16 12:45:37;;;;;;;;;;;;;;;30.92;22.32;97658.34;5549284;25;19927;-83
2024/04/16 12:48:02;;;;;;;;;;;;;;;30.74;22.88;97655.63;5549624;25;19934;-82
2024/04/16 12:50:28;;;;;;;;;;;;;;;30.55;21.75;97657.75;5549694;25;19934;-83
2024/04/16 12:52:53;;;;;;;;;;;;;;;30.62;22.04;97643.31;5549446;25;19934;-83
2024/04/16 12:55:18;;;;;;;;;;;;;;;30.74;22.10;97647.06;5549423;25;19927;-83